sensor_id;sensor_type;location;lat;lon;timestamp;P1;durP1;ratioP1;P2;durP2;ratioP2
18776;SDS011;9517;51.174;4.160;2024-03-25T00:00:18;24.07;;;9.73;;
18776;SDS011;9517;51.174;4.160;2024-03-25T00:02:46;21.90;;;9.33;;
18776;SDS011;9517;51.174;4.160;2024-03-25T00:05:12;23.70;;;9.67;;
18776;SDS011;9517;51.174;4.160;2024-03-25T00:07:40;25.60;;;10.37;;
18776;SDS011;9517;51.174;4.160;2024-03-25T00:10:06;24.30;;;10.10;;
18776;SDS011;9517;51.174;4.160;2024-03-25T00:12:37;20.87;;;9.30;;
18776;SDS011;9517;51.174;4.160;2024-03-25T00:15:04;23.03;;;9.00;;
18776;SDS011;9517;51.174;4.160;2024-03-25T00:17:32;22.23;;;9.03;;
18776;SDS011;9517;51.174;4.160;2024-03-25T00:19:59;27.10;;;9.20;;
18776;SDS011;9517;51.174;4.160;2024-03-25T00:22:26;21.83;;;9.60;;
18776;SDS011;9517;51.174;4.160;2024-03-25T00:24:52;23.47;;;9.53;;
18776;SDS011;9517;51.174;4.160;2024-03-25T00:27:34;22.77;;;9.67;;
18776;SDS011;9517;51.174;4.160;2024-03-25T00:30:01;28.33;;;9.63;;
18776;SDS011;9517;51.174;4.160;2024-03-25T00:32:28;20.83;;;8.63;;
18776;SDS011;9517;51.174;4.160;2024-03-25T00:34:56;24.27;;;10.07;;
18776;SDS011;9517;51.174;4.160;2024-03-25T00:37:22;22.63;;;9.90;;
18776;SDS011;9517;51.174;4.160;2024-03-25T00:39:51;25.50;;;10.30;;
18776;SDS011;9517;51.174;4.160;2024-03-25T00:42:17;26.67;;;9.23;;
18776;SDS011;9517;51.174;4.160;2024-03-25T00:44:44;19.53;;;9.40;;
18776;SDS011;9517;51.174;4.160;2024-03-25T00:47:11;28.77;;;9.23;;
18776;SDS011;9517;51.174;4.160;2024-03-25T00:49:39;22.77;;;9.70;;
18776;SDS011;9517;51.174;4.160;2024-03-25T00:52:14;23.63;;;8.70;;
18776;SDS011;9517;51.174;4.160;2024-03-25T00:54:43;22.17;;;9.40;;
18776;SDS011;9517;51.174;4.160;2024-03-25T00:57:10;20.77;;;8.93;;
18776;SDS011;9517;51.174;4.160;2024-03-25T00:59:39;23.63;;;8.70;;
18776;SDS011;9517;51.174;4.160;2024-03-25T01:02:05;22.97;;;9.40;;
18776;SDS011;9517;51.174;4.160;2024-03-25T01:04:33;24.57;;;9.17;;
18776;SDS011;9517;51.174;4.160;2024-03-25T01:07:00;28.00;;;8.93;;
18776;SDS011;9517;51.174;4.160;2024-03-25T01:09:29;21.83;;;8.90;;
18776;SDS011;9517;51.174;4.160;2024-03-25T01:11:56;20.67;;;8.73;;
18776;SDS011;9517;51.174;4.160;2024-03-25T01:14:25;33.40;;;10.03;;
18776;SDS011;9517;51.174;4.160;2024-03-25T01:16:51;23.93;;;8.17;;
18776;SDS011;9517;51.174;4.160;2024-03-25T01:19:18;23.53;;;8.90;;
18776;SDS011;9517;51.174;4.160;2024-03-25T01:21:46;25.87;;;8.60;;
18776;SDS011;9517;51.174;4.160;2024-03-25T01:24:15;26.60;;;8.73;;
18776;SDS011;9517;51.174;4.160;2024-03-25T01:26:46;27.97;;;9.40;;
18776;SDS011;9517;51.174;4.160;2024-03-25T01:29:14;22.97;;;8.23;;
18776;SDS011;9517;51.174;4.160;2024-03-25T01:31:40;26.50;;;7.87;;
18776;SDS011;9517;51.174;4.160;2024-03-25T01:34:13;28.73;;;8.77;;
18776;SDS011;9517;51.174;4.160;2024-03-25T01:36:40;27.00;;;8.23;;
18776;SDS011;9517;51.174;4.160;2024-03-25T01:39:08;27.70;;;8.63;;
18776;SDS011;9517;51.174;4.160;2024-03-25T01:41:34;27.33;;;8.80;;
18776;SDS011;9517;51.174;4.160;2024-03-25T01:44:03;21.87;;;8.23;;
18776;SDS011;9517;51.174;4.160;2024-03-25T01:46:29;26.23;;;8.73;;
18776;SDS011;9517;51.174;4.160;2024-03-25T01:48:56;24.13;;;8.03;;
18776;SDS011;9517;51.174;4.160;2024-03-25T01:51:23;26.40;;;8.17;;
18776;SDS011;9517;51.174;4.160;2024-03-25T01:53:52;24.03;;;8.23;;
18776;SDS011;9517;51.174;4.160;2024-03-25T01:56:18;24.13;;;8.53;;
18776;SDS011;9517;51.174;4.160;2024-03-25T01:58:49;21.53;;;8.03;;
18776;SDS011;9517;51.174;4.160;2024-03-25T02:01:19;23.80;;;9.00;;
18776;SDS011;9517;51.174;4.160;2024-03-25T02:03:46;26.37;;;9.50;;
18776;SDS011;9517;51.174;4.160;2024-03-25T02:06:15;24.77;;;9.73;;
18776;SDS011;9517;51.174;4.160;2024-03-25T02:08:46;30.47;;;9.67;;
18776;SDS011;9517;51.174;4.160;2024-03-25T02:11:13;27.77;;;10.07;;
18776;SDS011;9517;51.174;4.160;2024-03-25T02:13:50;23.43;;;9.97;;
18776;SDS011;9517;51.174;4.160;2024-03-25T02:18:50;26.23;;;10.27;;
18776;SDS011;9517;51.174;4.160;2024-03-25T02:21:17;24.63;;;10.13;;
18776;SDS011;9517;51.174;4.160;2024-03-25T02:23:44;28.30;;;10.17;;
18776;SDS011;9517;51.174;4.160;2024-03-25T02:26:21;26.37;;;10.27;;
18776;SDS011;9517;51.174;4.160;2024-03-25T02:28:48;27.20;;;10.60;;
18776;SDS011;9517;51.174;4.160;2024-03-25T02:31:33;28.33;;;11.07;;
18776;SDS011;9517;51.174;4.160;2024-03-25T02:34:01;26.10;;;11.03;;
18776;SDS011;9517;51.174;4.160;2024-03-25T02:36:29;23.23;;;10.87;;
18776;SDS011;9517;51.174;4.160;2024-03-25T02:38:58;35.60;;;12.20;;
18776;SDS011;9517;51.174;4.160;2024-03-25T02:41:30;28.43;;;11.97;;
18776;SDS011;9517;51.174;4.160;2024-03-25T02:44:00;28.37;;;12.37;;
18776;SDS011;9517;51.174;4.160;2024-03-25T02:46:33;31.27;;;12.23;;
18776;SDS011;9517;51.174;4.160;2024-03-25T02:48:59;29.27;;;13.13;;
18776;SDS011;9517;51.174;4.160;2024-03-25T02:51:28;27.33;;;11.97;;
18776;SDS011;9517;51.174;4.160;2024-03-25T02:53:54;24.50;;;12.07;;
18776;SDS011;9517;51.174;4.160;2024-03-25T02:56:21;26.83;;;12.07;;
18776;SDS011;9517;51.174;4.160;2024-03-25T02:58:49;32.80;;;11.47;;
18776;SDS011;9517;51.174;4.160;2024-03-25T03:01:22;32.17;;;11.10;;
18776;SDS011;9517;51.174;4.160;2024-03-25T03:03:48;25.60;;;11.83;;
18776;SDS011;9517;51.174;4.160;2024-03-25T03:06:17;29.00;;;11.33;;
18776;SDS011;9517;51.174;4.160;2024-03-25T03:08:44;28.90;;;11.77;;
18776;SDS011;9517;51.174;4.160;2024-03-25T03:11:20;27.30;;;11.90;;
18776;SDS011;9517;51.174;4.160;2024-03-25T03:13:46;24.17;;;11.03;;
18776;SDS011;9517;51.174;4.160;2024-03-25T03:16:23;35.40;;;12.77;;
18776;SDS011;9517;51.174;4.160;2024-03-25T03:18:49;26.70;;;12.10;;
18776;SDS011;9517;51.174;4.160;2024-03-25T03:21:16;27.00;;;11.83;;
18776;SDS011;9517;51.174;4.160;2024-03-25T03:23:43;32.50;;;13.03;;
18776;SDS011;9517;51.174;4.160;2024-03-25T03:26:20;38.37;;;12.83;;
18776;SDS011;9517;51.174;4.160;2024-03-25T03:28:46;29.23;;;13.10;;
18776;SDS011;9517;51.174;4.160;2024-03-25T03:31:26;35.70;;;12.33;;
18776;SDS011;9517;51.174;4.160;2024-03-25T03:33:52;27.37;;;13.07;;
18776;SDS011;9517;51.174;4.160;2024-03-25T03:36:21;34.27;;;12.63;;
18776;SDS011;9517;51.174;4.160;2024-03-25T03:38:50;28.97;;;12.70;;
18776;SDS011;9517;51.174;4.160;2024-03-25T03:41:23;31.00;;;13.27;;
18776;SDS011;9517;51.174;4.160;2024-03-25T03:43:50;32.50;;;13.73;;
18776;SDS011;9517;51.174;4.160;2024-03-25T03:46:21;31.50;;;13.50;;
18776;SDS011;9517;51.174;4.160;2024-03-25T03:48:47;33.73;;;13.77;;
18776;SDS011;9517;51.174;4.160;2024-03-25T03:51:14;32.47;;;12.47;;
18776;SDS011;9517;51.174;4.160;2024-03-25T03:53:40;31.97;;;13.60;;
18776;SDS011;9517;51.174;4.160;2024-03-25T03:56:07;35.23;;;13.03;;
18776;SDS011;9517;51.174;4.160;2024-03-25T03:58:34;43.47;;;13.37;;
18776;SDS011;9517;51.174;4.160;2024-03-25T04:01:01;35.60;;;12.87;;
18776;SDS011;9517;51.174;4.160;2024-03-25T04:03:30;32.87;;;14.07;;
18776;SDS011;9517;51.174;4.160;2024-03-25T04:05:57;44.53;;;13.87;;
18776;SDS011;9517;51.174;4.160;2024-03-25T04:08:23;30.87;;;13.20;;
18776;SDS011;9517;51.174;4.160;2024-03-25T04:10:50;36.10;;;13.77;;
18776;SDS011;9517;51.174;4.160;2024-03-25T04:13:16;34.50;;;14.17;;
18776;SDS011;9517;51.174;4.160;2024-03-25T04:15:45;40.70;;;14.90;;
18776;SDS011;9517;51.174;4.160;2024-03-25T04:18:11;41.03;;;14.47;;
18776;SDS011;9517;51.174;4.160;2024-03-25T04:20:41;36.47;;;14.73;;
18776;SDS011;9517;51.174;4.160;2024-03-25T04:23:07;40.10;;;14.87;;
18776;SDS011;9517;51.174;4.160;2024-03-25T04:25:35;43.60;;;15.17;;
18776;SDS011;9517;51.174;4.160;2024-03-25T04:28:02;40.53;;;15.27;;
18776;SDS011;9517;51.174;4.160;2024-03-25T04:30:31;38.97;;;14.77;;
18776;SDS011;9517;51.174;4.160;2024-03-25T04:32:57;48.67;;;15.33;;
18776;SDS011;9517;51.174;4.160;2024-03-25T04:35:24;52.10;;;16.17;;
18776;SDS011;9517;51.174;4.160;2024-03-25T04:37:52;58.40;;;17.07;;
18776;SDS011;9517;51.174;4.160;2024-03-25T04:40:19;69.30;;;18.60;;
18776;SDS011;9517;51.174;4.160;2024-03-25T04:42:45;81.60;;;19.27;;
18776;SDS011;9517;51.174;4.160;2024-03-25T04:45:11;95.63;;;18.27;;
18776;SDS011;9517;51.174;4.160;2024-03-25T04:47:37;111.93;;;19.87;;
18776;SDS011;9517;51.174;4.160;2024-03-25T04:50:03;141.37;;;21.13;;
18776;SDS011;9517;51.174;4.160;2024-03-25T04:52:30;189.13;;;23.47;;
18776;SDS011;9517;51.174;4.160;2024-03-25T04:54:58;109.07;;;20.20;;
18776;SDS011;9517;51.174;4.160;2024-03-25T04:57:24;131.47;;;22.90;;
18776;SDS011;9517;51.174;4.160;2024-03-25T04:59:50;100.43;;;23.33;;
18776;SDS011;9517;51.174;4.160;2024-03-25T05:02:16;95.27;;;22.40;;
18776;SDS011;9517;51.174;4.160;2024-03-25T05:04:42;96.37;;;22.40;;
18776;SDS011;9517;51.174;4.160;2024-03-25T05:07:08;71.53;;;21.20;;
18776;SDS011;9517;51.174;4.160;2024-03-25T05:09:35;97.23;;;22.97;;
18776;SDS011;9517;51.174;4.160;2024-03-25T05:12:02;79.57;;;22.13;;
18776;SDS011;9517;51.174;4.160;2024-03-25T05:14:28;87.97;;;23.67;;
18776;SDS011;9517;51.174;4.160;2024-03-25T05:16:54;75.87;;;21.80;;
18776;SDS011;9517;51.174;4.160;2024-03-25T05:19:20;90.17;;;23.47;;
18776;SDS011;9517;51.174;4.160;2024-03-25T05:21:46;71.60;;;22.23;;
18776;SDS011;9517;51.174;4.160;2024-03-25T05:24:12;85.37;;;22.00;;
18776;SDS011;9517;51.174;4.160;2024-03-25T05:26:38;70.87;;;22.67;;
18776;SDS011;9517;51.174;4.160;2024-03-25T05:29:06;76.20;;;20.73;;
18776;SDS011;9517;51.174;4.160;2024-03-25T05:31:32;80.80;;;22.47;;
18776;SDS011;9517;51.174;4.160;2024-03-25T05:33:58;79.03;;;22.20;;
18776;SDS011;9517;51.174;4.160;2024-03-25T05:36:25;75.23;;;21.13;;
18776;SDS011;9517;51.174;4.160;2024-03-25T05:39:16;78.17;;;21.47;;
18776;SDS011;9517;51.174;4.160;2024-03-25T05:41:42;68.83;;;20.63;;
18776;SDS011;9517;51.174;4.160;2024-03-25T05:44:10;78.37;;;20.87;;
18776;SDS011;9517;51.174;4.160;2024-03-25T05:46:36;72.67;;;21.77;;
18776;SDS011;9517;51.174;4.160;2024-03-25T05:49:03;66.50;;;20.37;;
18776;SDS011;9517;51.174;4.160;2024-03-25T05:51:29;73.57;;;21.20;;
18776;SDS011;9517;51.174;4.160;2024-03-25T05:53:56;65.60;;;19.90;;
18776;SDS011;9517;51.174;4.160;2024-03-25T05:56:22;72.50;;;20.67;;
18776;SDS011;9517;51.174;4.160;2024-03-25T05:58:48;73.83;;;21.57;;
18776;SDS011;9517;51.174;4.160;2024-03-25T06:04:45;67.03;;;20.90;;
18776;SDS011;9517;51.174;4.160;2024-03-25T06:14:23;73.20;;;21.27;;
18776;SDS011;9517;51.174;4.160;2024-03-25T06:17:04;72.40;;;21.33;;
18776;SDS011;9517;51.174;4.160;2024-03-25T06:19:30;66.20;;;21.00;;
18776;SDS011;9517;51.174;4.160;2024-03-25T06:21:57;70.03;;;21.00;;
18776;SDS011;9517;51.174;4.160;2024-03-25T06:24:23;61.53;;;19.27;;
18776;SDS011;9517;51.174;4.160;2024-03-25T06:26:49;63.57;;;20.17;;
18776;SDS011;9517;51.174;4.160;2024-03-25T06:29:16;63.27;;;21.27;;
18776;SDS011;9517;51.174;4.160;2024-03-25T06:31:42;73.37;;;20.63;;
18776;SDS011;9517;51.174;4.160;2024-03-25T06:34:34;63.77;;;19.70;;
18776;SDS011;9517;51.174;4.160;2024-03-25T06:37:02;71.33;;;22.53;;
18776;SDS011;9517;51.174;4.160;2024-03-25T06:39:40;76.50;;;21.93;;
18776;SDS011;9517;51.174;4.160;2024-03-25T06:42:06;61.27;;;19.97;;
18776;SDS011;9517;51.174;4.160;2024-03-25T06:44:32;81.57;;;21.13;;
18776;SDS011;9517;51.174;4.160;2024-03-25T06:46:58;67.93;;;21.10;;
18776;SDS011;9517;51.174;4.160;2024-03-25T06:49:24;66.43;;;20.80;;
18776;SDS011;9517;51.174;4.160;2024-03-25T06:51:51;64.33;;;20.40;;
18776;SDS011;9517;51.174;4.160;2024-03-25T06:54:18;77.90;;;20.77;;
18776;SDS011;9517;51.174;4.160;2024-03-25T06:56:44;66.30;;;19.93;;
18776;SDS011;9517;51.174;4.160;2024-03-25T06:59:10;66.87;;;21.20;;
18776;SDS011;9517;51.174;4.160;2024-03-25T07:01:39;68.37;;;20.80;;
18776;SDS011;9517;51.174;4.160;2024-03-25T07:04:05;68.93;;;21.03;;
18776;SDS011;9517;51.174;4.160;2024-03-25T07:06:31;69.67;;;20.30;;
18776;SDS011;9517;51.174;4.160;2024-03-25T07:08:57;62.67;;;20.03;;
18776;SDS011;9517;51.174;4.160;2024-03-25T07:11:25;82.77;;;21.90;;
18776;SDS011;9517;51.174;4.160;2024-03-25T07:13:52;66.93;;;20.63;;
18776;SDS011;9517;51.174;4.160;2024-03-25T07:16:18;73.97;;;21.07;;
18776;SDS011;9517;51.174;4.160;2024-03-25T07:18:44;77.37;;;22.30;;
18776;SDS011;9517;51.174;4.160;2024-03-25T07:21:10;70.40;;;19.83;;
18776;SDS011;9517;51.174;4.160;2024-03-25T07:23:36;57.27;;;19.50;;
18776;SDS011;9517;51.174;4.160;2024-03-25T07:26:02;75.30;;;20.53;;
18776;SDS011;9517;51.174;4.160;2024-03-25T07:28:30;64.67;;;20.33;;
18776;SDS011;9517;51.174;4.160;2024-03-25T07:30:56;70.30;;;20.67;;
18776;SDS011;9517;51.174;4.160;2024-03-25T07:33:22;71.13;;;20.13;;
18776;SDS011;9517;51.174;4.160;2024-03-25T07:35:49;67.53;;;19.47;;
18776;SDS011;9517;51.174;4.160;2024-03-25T07:38:15;61.07;;;20.40;;
18776;SDS011;9517;51.174;4.160;2024-03-25T07:40:41;62.47;;;18.67;;
18776;SDS011;9517;51.174;4.160;2024-03-25T07:43:07;61.23;;;18.17;;
18776;SDS011;9517;51.174;4.160;2024-03-25T07:45:35;53.80;;;19.73;;
18776;SDS011;9517;51.174;4.160;2024-03-25T07:48:03;58.57;;;18.40;;
18776;SDS011;9517;51.174;4.160;2024-03-25T07:50:30;53.30;;;17.70;;
18776;SDS011;9517;51.174;4.160;2024-03-25T07:52:59;58.03;;;18.33;;
18776;SDS011;9517;51.174;4.160;2024-03-25T07:55:25;60.90;;;18.07;;
18776;SDS011;9517;51.174;4.160;2024-03-25T07:57:52;56.87;;;17.30;;
18776;SDS011;9517;51.174;4.160;2024-03-25T08:00:18;58.53;;;17.67;;
18776;SDS011;9517;51.174;4.160;2024-03-25T08:02:46;57.47;;;16.60;;
18776;SDS011;9517;51.174;4.160;2024-03-25T08:05:12;49.03;;;17.63;;
18776;SDS011;9517;51.174;4.160;2024-03-25T08:07:38;52.53;;;18.20;;
18776;SDS011;9517;51.174;4.160;2024-03-25T08:10:05;54.33;;;18.20;;
18776;SDS011;9517;51.174;4.160;2024-03-25T08:12:32;46.17;;;18.17;;
18776;SDS011;9517;51.174;4.160;2024-03-25T08:14:58;48.67;;;17.90;;
18776;SDS011;9517;51.174;4.160;2024-03-25T08:17:24;55.87;;;17.83;;
18776;SDS011;9517;51.174;4.160;2024-03-25T08:19:52;55.23;;;17.97;;
18776;SDS011;9517;51.174;4.160;2024-03-25T08:22:18;59.30;;;17.93;;
18776;SDS011;9517;51.174;4.160;2024-03-25T08:24:44;68.67;;;20.23;;
18776;SDS011;9517;51.174;4.160;2024-03-25T08:27:10;54.73;;;18.73;;
18776;SDS011;9517;51.174;4.160;2024-03-25T08:29:36;59.70;;;19.13;;
18776;SDS011;9517;51.174;4.160;2024-03-25T08:32:03;61.43;;;19.77;;
18776;SDS011;9517;51.174;4.160;2024-03-25T08:34:30;63.40;;;20.60;;
18776;SDS011;9517;51.174;4.160;2024-03-25T08:39:56;62.97;;;19.57;;
18776;SDS011;9517;51.174;4.160;2024-03-25T08:42:22;58.90;;;20.00;;
18776;SDS011;9517;51.174;4.160;2024-03-25T08:44:49;56.57;;;19.87;;
18776;SDS011;9517;51.174;4.160;2024-03-25T08:47:16;54.13;;;18.50;;
18776;SDS011;9517;51.174;4.160;2024-03-25T08:49:42;59.47;;;20.23;;
18776;SDS011;9517;51.174;4.160;2024-03-25T08:52:11;47.77;;;17.80;;
18776;SDS011;9517;51.174;4.160;2024-03-25T08:54:41;44.27;;;15.77;;
18776;SDS011;9517;51.174;4.160;2024-03-25T08:57:08;47.50;;;17.53;;
18776;SDS011;9517;51.174;4.160;2024-03-25T08:59:36;47.07;;;14.73;;
18776;SDS011;9517;51.174;4.160;2024-03-25T09:02:05;43.37;;;14.67;;
18776;SDS011;9517;51.174;4.160;2024-03-25T09:04:32;40.70;;;14.73;;
18776;SDS011;9517;51.174;4.160;2024-03-25T09:09:37;38.93;;;12.80;;
18776;SDS011;9517;51.174;4.160;2024-03-25T09:15:01;33.77;;;10.33;;
18776;SDS011;9517;51.174;4.160;2024-03-25T09:17:29;31.50;;;10.37;;
18776;SDS011;9517;51.174;4.160;2024-03-25T09:19:56;30.40;;;10.13;;
18776;SDS011;9517;51.174;4.160;2024-03-25T09:22:35;35.20;;;9.97;;
18776;SDS011;9517;51.174;4.160;2024-03-25T09:25:01;30.83;;;10.07;;
18776;SDS011;9517;51.174;4.160;2024-03-25T09:27:27;24.50;;;8.70;;
18776;SDS011;9517;51.174;4.160;2024-03-25T09:29:53;22.83;;;8.07;;
18776;SDS011;9517;51.174;4.160;2024-03-25T09:32:20;25.33;;;7.40;;
18776;SDS011;9517;51.174;4.160;2024-03-25T09:34:47;26.03;;;8.27;;
18776;SDS011;9517;51.174;4.160;2024-03-25T09:37:13;28.10;;;8.30;;
18776;SDS011;9517;51.174;4.160;2024-03-25T09:39:39;23.97;;;8.80;;
18776;SDS011;9517;51.174;4.160;2024-03-25T09:42:05;25.07;;;7.47;;
18776;SDS011;9517;51.174;4.160;2024-03-25T09:44:36;28.93;;;9.30;;
18776;SDS011;9517;51.174;4.160;2024-03-25T09:47:03;27.63;;;7.33;;
18776;SDS011;9517;51.174;4.160;2024-03-25T09:52:06;25.87;;;8.13;;
18776;SDS011;9517;51.174;4.160;2024-03-25T09:54:33;22.33;;;6.43;;
18776;SDS011;9517;51.174;4.160;2024-03-25T09:56:59;20.40;;;7.67;;
18776;SDS011;9517;51.174;4.160;2024-03-25T09:59:29;22.67;;;6.37;;
18776;SDS011;9517;51.174;4.160;2024-03-25T10:02:02;20.17;;;7.20;;
18776;SDS011;9517;51.174;4.160;2024-03-25T10:04:43;24.63;;;8.47;;
18776;SDS011;9517;51.174;4.160;2024-03-25T10:07:14;29.33;;;9.47;;
18776;SDS011;9517;51.174;4.160;2024-03-25T10:09:48;26.03;;;8.20;;
18776;SDS011;9517;51.174;4.160;2024-03-25T10:12:14;24.77;;;8.87;;
18776;SDS011;9517;51.174;4.160;2024-03-25T10:14:41;22.37;;;6.97;;
18776;SDS011;9517;51.174;4.160;2024-03-25T10:17:07;19.90;;;7.50;;
18776;SDS011;9517;51.174;4.160;2024-03-25T10:19:34;21.30;;;6.30;;
18776;SDS011;9517;51.174;4.160;2024-03-25T10:22:04;19.50;;;5.87;;
18776;SDS011;9517;51.174;4.160;2024-03-25T10:24:39;25.13;;;7.70;;
18776;SDS011;9517;51.174;4.160;2024-03-25T10:27:05;25.57;;;8.87;;
18776;SDS011;9517;51.174;4.160;2024-03-25T10:29:31;22.50;;;7.27;;
18776;SDS011;9517;51.174;4.160;2024-03-25T10:32:00;22.03;;;6.67;;
18776;SDS011;9517;51.174;4.160;2024-03-25T10:34:27;21.30;;;6.70;;
18776;SDS011;9517;51.174;4.160;2024-03-25T10:36:54;26.07;;;7.53;;
18776;SDS011;9517;51.174;4.160;2024-03-25T10:39:24;19.67;;;6.80;;
18776;SDS011;9517;51.174;4.160;2024-03-25T10:41:55;30.43;;;11.53;;
18776;SDS011;9517;51.174;4.160;2024-03-25T10:44:22;20.43;;;7.53;;
18776;SDS011;9517;51.174;4.160;2024-03-25T10:46:50;22.23;;;7.27;;
18776;SDS011;9517;51.174;4.160;2024-03-25T10:49:33;23.23;;;6.63;;
18776;SDS011;9517;51.174;4.160;2024-03-25T10:52:05;18.40;;;5.40;;
18776;SDS011;9517;51.174;4.160;2024-03-25T10:54:31;17.20;;;5.30;;
18776;SDS011;9517;51.174;4.160;2024-03-25T10:57:00;19.93;;;5.33;;
18776;SDS011;9517;51.174;4.160;2024-03-25T10:59:28;17.83;;;6.47;;
18776;SDS011;9517;51.174;4.160;2024-03-25T11:01:56;30.57;;;5.87;;
18776;SDS011;9517;51.174;4.160;2024-03-25T11:04:22;17.27;;;5.07;;
18776;SDS011;9517;51.174;4.160;2024-03-25T11:06:50;17.43;;;5.37;;
18776;SDS011;9517;51.174;4.160;2024-03-25T11:09:23;16.17;;;5.20;;
18776;SDS011;9517;51.174;4.160;2024-03-25T11:11:57;14.63;;;4.63;;
18776;SDS011;9517;51.174;4.160;2024-03-25T11:14:41;15.30;;;4.50;;
18776;SDS011;9517;51.174;4.160;2024-03-25T11:17:14;14.47;;;4.97;;
18776;SDS011;9517;51.174;4.160;2024-03-25T11:19:41;16.20;;;5.03;;
18776;SDS011;9517;51.174;4.160;2024-03-25T11:22:07;16.00;;;4.53;;
18776;SDS011;9517;51.174;4.160;2024-03-25T11:24:34;11.60;;;3.60;;
18776;SDS011;9517;51.174;4.160;2024-03-25T11:27:05;11.50;;;2.67;;
18776;SDS011;9517;51.174;4.160;2024-03-25T11:29:33;15.80;;;3.93;;
18776;SDS011;9517;51.174;4.160;2024-03-25T11:32:02;12.43;;;2.50;;
18776;SDS011;9517;51.174;4.160;2024-03-25T11:34:29;12.13;;;3.70;;
18776;SDS011;9517;51.174;4.160;2024-03-25T11:36:55;13.33;;;3.60;;
18776;SDS011;9517;51.174;4.160;2024-03-25T11:39:22;11.60;;;2.50;;
18776;SDS011;9517;51.174;4.160;2024-03-25T11:41:48;19.90;;;6.90;;
18776;SDS011;9517;51.174;4.160;2024-03-25T11:44:15;14.13;;;3.40;;
18776;SDS011;9517;51.174;4.160;2024-03-25T11:46:42;9.67;;;2.90;;
18776;SDS011;9517;51.174;4.160;2024-03-25T11:49:11;10.43;;;2.60;;
18776;SDS011;9517;51.174;4.160;2024-03-25T11:51:40;11.87;;;2.60;;
18776;SDS011;9517;51.174;4.160;2024-03-25T11:54:09;11.03;;;3.53;;
18776;SDS011;9517;51.174;4.160;2024-03-25T11:56:36;12.00;;;2.83;;
18776;SDS011;9517;51.174;4.160;2024-03-25T11:59:02;8.63;;;2.63;;
18776;SDS011;9517;51.174;4.160;2024-03-25T12:01:28;9.27;;;2.27;;
18776;SDS011;9517;51.174;4.160;2024-03-25T12:03:56;11.23;;;2.80;;
18776;SDS011;9517;51.174;4.160;2024-03-25T12:06:24;9.83;;;2.83;;
18776;SDS011;9517;51.174;4.160;2024-03-25T12:08:50;9.60;;;2.40;;
18776;SDS011;9517;51.174;4.160;2024-03-25T12:11:30;10.40;;;3.00;;
18776;SDS011;9517;51.174;4.160;2024-03-25T12:13:57;10.77;;;2.63;;
18776;SDS011;9517;51.174;4.160;2024-03-25T12:16:23;9.20;;;2.73;;
18776;SDS011;9517;51.174;4.160;2024-03-25T12:18:50;10.23;;;2.67;;
18776;SDS011;9517;51.174;4.160;2024-03-25T12:21:17;11.33;;;3.03;;
18776;SDS011;9517;51.174;4.160;2024-03-25T12:23:46;10.57;;;2.90;;
18776;SDS011;9517;51.174;4.160;2024-03-25T12:26:13;14.50;;;3.20;;
18776;SDS011;9517;51.174;4.160;2024-03-25T12:28:39;13.80;;;2.77;;
18776;SDS011;9517;51.174;4.160;2024-03-25T12:31:07;11.97;;;2.43;;
18776;SDS011;9517;51.174;4.160;2024-03-25T12:33:39;10.83;;;3.30;;
18776;SDS011;9517;51.174;4.160;2024-03-25T12:36:06;12.70;;;2.80;;
18776;SDS011;9517;51.174;4.160;2024-03-25T12:38:32;10.50;;;2.97;;
18776;SDS011;9517;51.174;4.160;2024-03-25T12:41:04;12.83;;;3.30;;
18776;SDS011;9517;51.174;4.160;2024-03-25T12:43:32;9.43;;;3.03;;
18776;SDS011;9517;51.174;4.160;2024-03-25T12:45:59;12.10;;;3.37;;
18776;SDS011;9517;51.174;4.160;2024-03-25T12:48:26;14.63;;;3.77;;
18776;SDS011;9517;51.174;4.160;2024-03-25T12:50:52;10.60;;;3.20;;
18776;SDS011;9517;51.174;4.160;2024-03-25T12:53:19;13.83;;;3.33;;
18776;SDS011;9517;51.174;4.160;2024-03-25T12:55:45;11.13;;;2.90;;
18776;SDS011;9517;51.174;4.160;2024-03-25T12:58:13;13.50;;;3.10;;
18776;SDS011;9517;51.174;4.160;2024-03-25T13:00:39;9.07;;;2.80;;
18776;SDS011;9517;51.174;4.160;2024-03-25T13:03:06;10.27;;;2.43;;
18776;SDS011;9517;51.174;4.160;2024-03-25T13:05:33;12.77;;;3.03;;
18776;SDS011;9517;51.174;4.160;2024-03-25T13:07:59;15.57;;;3.13;;
18776;SDS011;9517;51.174;4.160;2024-03-25T13:10:26;14.53;;;3.20;;
18776;SDS011;9517;51.174;4.160;2024-03-25T13:12:52;11.13;;;2.60;;
18776;SDS011;9517;51.174;4.160;2024-03-25T13:15:20;10.37;;;2.63;;
18776;SDS011;9517;51.174;4.160;2024-03-25T13:17:46;9.97;;;2.63;;
18776;SDS011;9517;51.174;4.160;2024-03-25T13:20:12;9.57;;;2.30;;
18776;SDS011;9517;51.174;4.160;2024-03-25T13:22:38;8.27;;;2.10;;
18776;SDS011;9517;51.174;4.160;2024-03-25T13:25:05;11.60;;;2.67;;
18776;SDS011;9517;51.174;4.160;2024-03-25T13:27:31;14.70;;;2.90;;
18776;SDS011;9517;51.174;4.160;2024-03-25T13:29:58;11.87;;;2.80;;
18776;SDS011;9517;51.174;4.160;2024-03-25T13:32:25;13.00;;;2.37;;
18776;SDS011;9517;51.174;4.160;2024-03-25T13:34:51;12.23;;;2.57;;
18776;SDS011;9517;51.174;4.160;2024-03-25T13:37:17;8.27;;;2.20;;
18776;SDS011;9517;51.174;4.160;2024-03-25T13:39:43;9.50;;;2.30;;
18776;SDS011;9517;51.174;4.160;2024-03-25T13:42:10;8.03;;;2.10;;
18776;SDS011;9517;51.174;4.160;2024-03-25T13:44:36;9.27;;;2.50;;
18776;SDS011;9517;51.174;4.160;2024-03-25T13:47:02;10.10;;;2.30;;
18776;SDS011;9517;51.174;4.160;2024-03-25T13:49:29;9.50;;;2.20;;
18776;SDS011;9517;51.174;4.160;2024-03-25T13:51:56;10.63;;;2.70;;
18776;SDS011;9517;51.174;4.160;2024-03-25T13:54:22;10.17;;;2.53;;
18776;SDS011;9517;51.174;4.160;2024-03-25T13:56:48;11.30;;;2.20;;
18776;SDS011;9517;51.174;4.160;2024-03-25T13:59:15;9.23;;;2.63;;
18776;SDS011;9517;51.174;4.160;2024-03-25T14:01:41;7.23;;;2.57;;
18776;SDS011;9517;51.174;4.160;2024-03-25T14:04:07;10.80;;;2.97;;
18776;SDS011;9517;51.174;4.160;2024-03-25T14:06:34;8.40;;;2.47;;
18776;SDS011;9517;51.174;4.160;2024-03-25T14:09:01;9.43;;;2.70;;
18776;SDS011;9517;51.174;4.160;2024-03-25T14:11:27;10.67;;;3.00;;
18776;SDS011;9517;51.174;4.160;2024-03-25T14:13:54;7.07;;;2.40;;
18776;SDS011;9517;51.174;4.160;2024-03-25T14:16:20;8.27;;;2.43;;
18776;SDS011;9517;51.174;4.160;2024-03-25T14:18:46;10.00;;;2.80;;
18776;SDS011;9517;51.174;4.160;2024-03-25T14:21:12;9.83;;;2.07;;
18776;SDS011;9517;51.174;4.160;2024-03-25T14:23:40;12.07;;;2.23;;
18776;SDS011;9517;51.174;4.160;2024-03-25T14:26:06;10.93;;;2.13;;
18776;SDS011;9517;51.174;4.160;2024-03-25T14:28:33;9.53;;;2.60;;
18776;SDS011;9517;51.174;4.160;2024-03-25T14:30:59;12.40;;;2.30;;
18776;SDS011;9517;51.174;4.160;2024-03-25T14:33:30;7.40;;;2.20;;
18776;SDS011;9517;51.174;4.160;2024-03-25T14:36:00;6.47;;;1.90;;
18776;SDS011;9517;51.174;4.160;2024-03-25T14:38:30;8.97;;;2.00;;
18776;SDS011;9517;51.174;4.160;2024-03-25T14:41:01;9.13;;;2.43;;
18776;SDS011;9517;51.174;4.160;2024-03-25T14:43:30;7.93;;;1.80;;
18776;SDS011;9517;51.174;4.160;2024-03-25T14:46:13;10.30;;;1.93;;
18776;SDS011;9517;51.174;4.160;2024-03-25T14:51:43;8.57;;;1.90;;
18776;SDS011;9517;51.174;4.160;2024-03-25T14:54:09;7.60;;;2.07;;
18776;SDS011;9517;51.174;4.160;2024-03-25T14:56:36;7.57;;;1.77;;
18776;SDS011;9517;51.174;4.160;2024-03-25T14:59:02;7.63;;;1.70;;
18776;SDS011;9517;51.174;4.160;2024-03-25T15:01:28;9.47;;;2.00;;
18776;SDS011;9517;51.174;4.160;2024-03-25T15:03:55;9.73;;;2.13;;
18776;SDS011;9517;51.174;4.160;2024-03-25T15:06:21;8.87;;;1.93;;
18776;SDS011;9517;51.174;4.160;2024-03-25T15:08:47;7.40;;;2.00;;
18776;SDS011;9517;51.174;4.160;2024-03-25T15:11:13;9.60;;;2.07;;
18776;SDS011;9517;51.174;4.160;2024-03-25T15:13:41;7.47;;;2.00;;